Terminal Aerodrome Forecast
Issued by NWS

Home | Current Version | Previous Version | Text Only | Print | Product List | Glossary On
Versions: 1 2 3 4 5 6 7 8 9 10 11 12 13 14 15 16 17 18 19 20
000
FTUS41 KAKQ 271400 AAA
TAFPHF
TAF AMD
KPHF 271419Z 2714/2812 34011G18KT P6SM OVC025
      TEMPO 2714/2717 4SM -SN OVC015
     FM280500 33011KT P6SM SCT040=

USA.gov is the U.S. government's official web portal to all federal, state and local government web resources and services.